sensor_id;sensor_type;location;lat;lon;timestamp;pressure;altitude;pressure_sealevel;temperature;humidity
68075;BME280;54864;52.002;5.468;2023-01-25T00:00:37;103677.00;;;3.14;70.34
68075;BME280;54864;52.002;5.468;2023-01-25T00:01:39;103669.19;;;3.14;70.16
68075;BME280;54864;52.002;5.468;2023-01-25T00:02:40;103673.56;;;3.15;70.48
68075;BME280;54864;52.002;5.468;2023-01-25T00:03:42;103666.50;;;3.11;70.37
68075;BME280;54864;52.002;5.468;2023-01-25T00:04:42;103664.13;;;3.19;69.63
68075;BME280;54864;52.002;5.468;2023-01-25T00:05:44;103663.56;;;3.28;69.61
68075;BME280;54864;52.002;5.468;2023-01-25T00:06:45;103659.19;;;3.27;69.23
68075;BME280;54864;52.002;5.468;2023-01-25T00:07:48;103659.75;;;3.18;69.57
68075;BME280;54864;52.002;5.468;2023-01-25T00:08:48;103662.41;;;3.19;69.86
68075;BME280;54864;52.002;5.468;2023-01-25T00:09:52;103656.06;;;3.11;69.93
68075;BME280;54864;52.002;5.468;2023-01-25T00:10:52;103664.44;;;3.01;70.51
68075;BME280;54864;52.002;5.468;2023-01-25T00:11:54;103663.84;;;3.10;70.78
68075;BME280;54864;52.002;5.468;2023-01-25T00:12:57;103651.88;;;3.16;70.66
68075;BME280;54864;52.002;5.468;2023-01-25T00:13:59;103659.06;;;3.24;70.01
68075;BME280;54864;52.002;5.468;2023-01-25T00:14:59;103650.41;;;3.25;69.27
68075;BME280;54864;52.002;5.468;2023-01-25T00:16:02;103654.81;;;3.26;69.84
68075;BME280;54864;52.002;5.468;2023-01-25T00:17:03;103647.66;;;3.20;69.57
68075;BME280;54864;52.002;5.468;2023-01-25T00:18:05;103648.41;;;3.16;69.41
68075;BME280;54864;52.002;5.468;2023-01-25T00:19:07;103651.00;;;3.16;69.68
68075;BME280;54864;52.002;5.468;2023-01-25T00:20:09;103650.47;;;3.26;69.74
68075;BME280;54864;52.002;5.468;2023-01-25T00:21:11;103658.34;;;3.28;69.20
68075;BME280;54864;52.002;5.468;2023-01-25T00:22:13;103651.34;;;3.27;69.87
68075;BME280;54864;52.002;5.468;2023-01-25T00:23:14;103651.03;;;3.17;70.21
68075;BME280;54864;52.002;5.468;2023-01-25T00:24:16;103641.84;;;3.29;69.44
68075;BME280;54864;52.002;5.468;2023-01-25T00:25:18;103651.94;;;3.18;69.11
68075;BME280;54864;52.002;5.468;2023-01-25T00:26:20;103646.44;;;3.09;69.63
68075;BME280;54864;52.002;5.468;2023-01-25T00:27:21;103644.75;;;3.11;70.29
68075;BME280;54864;52.002;5.468;2023-01-25T00:28:23;103647.22;;;3.06;70.40
68075;BME280;54864;52.002;5.468;2023-01-25T00:29:23;103644.47;;;3.02;69.59
68075;BME280;54864;52.002;5.468;2023-01-25T00:30:25;103653.13;;;3.01;70.01
68075;BME280;54864;52.002;5.468;2023-01-25T00:31:36;103646.28;;;3.04;70.70
68075;BME280;54864;52.002;5.468;2023-01-25T00:32:51;103643.75;;;3.06;69.49
68075;BME280;54864;52.002;5.468;2023-01-25T00:33:59;103643.00;;;3.10;69.54
68075;BME280;54864;52.002;5.468;2023-01-25T00:35:02;103642.09;;;3.09;70.30
68075;BME280;54864;52.002;5.468;2023-01-25T00:37:38;103641.03;;;3.03;70.38
68075;BME280;54864;52.002;5.468;2023-01-25T00:38:39;103644.81;;;3.12;70.31
68075;BME280;54864;52.002;5.468;2023-01-25T00:39:43;103638.81;;;3.15;69.99
68075;BME280;54864;52.002;5.468;2023-01-25T00:40:48;103633.41;;;3.09;69.05
68075;BME280;54864;52.002;5.468;2023-01-25T00:41:50;103635.88;;;3.04;69.35
68075;BME280;54864;52.002;5.468;2023-01-25T00:42:52;103636.94;;;3.11;69.75
68075;BME280;54864;52.002;5.468;2023-01-25T00:43:54;103638.47;;;3.04;69.44
68075;BME280;54864;52.002;5.468;2023-01-25T00:44:54;103637.78;;;3.10;69.71
68075;BME280;54864;52.002;5.468;2023-01-25T00:45:59;103637.03;;;3.14;69.56
68075;BME280;54864;52.002;5.468;2023-01-25T00:47:00;103629.06;;;3.09;69.96
68075;BME280;54864;52.002;5.468;2023-01-25T00:48:02;103639.53;;;3.11;69.37
68075;BME280;54864;52.002;5.468;2023-01-25T00:49:03;103637.03;;;3.14;69.17
68075;BME280;54864;52.002;5.468;2023-01-25T00:50:06;103630.91;;;3.12;69.24
68075;BME280;54864;52.002;5.468;2023-01-25T00:51:07;103630.97;;;3.15;69.51
68075;BME280;54864;52.002;5.468;2023-01-25T00:52:09;103634.09;;;3.03;69.53
68075;BME280;54864;52.002;5.468;2023-01-25T00:53:10;103621.34;;;2.84;69.98
68075;BME280;54864;52.002;5.468;2023-01-25T00:54:12;103628.56;;;2.93;70.11
68075;BME280;54864;52.002;5.468;2023-01-25T00:55:13;103632.69;;;2.86;70.72
68075;BME280;54864;52.002;5.468;2023-01-25T00:56:16;103627.28;;;2.80;70.59
68075;BME280;54864;52.002;5.468;2023-01-25T00:57:17;103627.28;;;2.80;70.71
68075;BME280;54864;52.002;5.468;2023-01-25T00:58:19;103629.78;;;2.77;71.25
68075;BME280;54864;52.002;5.468;2023-01-25T00:59:20;103623.41;;;2.94;71.04
68075;BME280;54864;52.002;5.468;2023-01-25T01:00:22;103623.25;;;2.90;70.51
68075;BME280;54864;52.002;5.468;2023-01-25T01:01:22;103625.22;;;2.97;70.40
68075;BME280;54864;52.002;5.468;2023-01-25T01:02:24;103632.34;;;2.75;70.50
68075;BME280;54864;52.002;5.468;2023-01-25T01:03:25;103624.34;;;2.69;70.91
68075;BME280;54864;52.002;5.468;2023-01-25T01:04:27;103616.28;;;2.89;70.83
68075;BME280;54864;52.002;5.468;2023-01-25T01:05:27;103624.50;;;3.02;70.57
68075;BME280;54864;52.002;5.468;2023-01-25T01:06:29;103627.41;;;3.11;70.21
68075;BME280;54864;52.002;5.468;2023-01-25T01:07:30;103620.31;;;3.07;70.80
68075;BME280;54864;52.002;5.468;2023-01-25T01:08:33;103617.03;;;3.13;70.28
68075;BME280;54864;52.002;5.468;2023-01-25T01:09:36;103617.84;;;3.12;70.24
68075;BME280;54864;52.002;5.468;2023-01-25T01:10:38;103624.78;;;3.11;70.76
68075;BME280;54864;52.002;5.468;2023-01-25T01:11:40;103620.56;;;3.15;70.67
68075;BME280;54864;52.002;5.468;2023-01-25T01:12:42;103619.41;;;3.05;70.45
68075;BME280;54864;52.002;5.468;2023-01-25T01:13:43;103621.25;;;3.09;71.09
68075;BME280;54864;52.002;5.468;2023-01-25T01:14:45;103626.78;;;3.20;71.07
68075;BME280;54864;52.002;5.468;2023-01-25T01:15:46;103622.63;;;3.25;70.40
68075;BME280;54864;52.002;5.468;2023-01-25T01:16:47;103624.97;;;3.17;69.78
68075;BME280;54864;52.002;5.468;2023-01-25T01:17:49;103630.28;;;3.21;70.01
68075;BME280;54864;52.002;5.468;2023-01-25T01:18:50;103623.22;;;3.16;70.30
68075;BME280;54864;52.002;5.468;2023-01-25T01:19:51;103624.69;;;3.08;70.32
68075;BME280;54864;52.002;5.468;2023-01-25T01:20:52;103627.81;;;2.97;70.60
68075;BME280;54864;52.002;5.468;2023-01-25T01:21:54;103631.72;;;2.82;70.79
68075;BME280;54864;52.002;5.468;2023-01-25T01:22:55;103626.22;;;2.73;70.58
68075;BME280;54864;52.002;5.468;2023-01-25T01:23:57;103631.53;;;2.76;70.33
68075;BME280;54864;52.002;5.468;2023-01-25T01:24:58;103626.44;;;2.81;70.42
68075;BME280;54864;52.002;5.468;2023-01-25T01:26:00;103618.91;;;2.90;70.31
68075;BME280;54864;52.002;5.468;2023-01-25T01:27:02;103627.56;;;2.89;70.11
68075;BME280;54864;52.002;5.468;2023-01-25T01:28:04;103629.78;;;2.77;70.12
68075;BME280;54864;52.002;5.468;2023-01-25T01:29:05;103631.56;;;2.78;70.04
68075;BME280;54864;52.002;5.468;2023-01-25T01:30:08;103622.13;;;2.81;70.12
68075;BME280;54864;52.002;5.468;2023-01-25T01:31:11;103623.19;;;2.88;70.10
68075;BME280;54864;52.002;5.468;2023-01-25T01:32:13;103626.00;;;2.94;69.61
68075;BME280;54864;52.002;5.468;2023-01-25T01:33:14;103627.06;;;3.01;69.41
68075;BME280;54864;52.002;5.468;2023-01-25T01:34:16;103625.44;;;3.04;70.05
68075;BME280;54864;52.002;5.468;2023-01-25T01:35:18;103630.59;;;3.03;70.04
68075;BME280;54864;52.002;5.468;2023-01-25T01:36:22;103627.25;;;3.07;69.94
68075;BME280;54864;52.002;5.468;2023-01-25T01:37:23;103619.59;;;3.11;69.35
68075;BME280;54864;52.002;5.468;2023-01-25T01:38:24;103620.66;;;3.18;69.19
68075;BME280;54864;52.002;5.468;2023-01-25T01:39:25;103629.22;;;3.14;68.89
68075;BME280;54864;52.002;5.468;2023-01-25T01:40:27;103629.16;;;3.12;68.76
68075;BME280;54864;52.002;5.468;2023-01-25T01:41:28;103622.09;;;3.08;68.85
68075;BME280;54864;52.002;5.468;2023-01-25T01:42:31;103634.06;;;3.02;69.62
68075;BME280;54864;52.002;5.468;2023-01-25T01:43:32;103625.16;;;2.95;69.50
68075;BME280;54864;52.002;5.468;2023-01-25T01:44:45;103628.84;;;3.02;70.35
68075;BME280;54864;52.002;5.468;2023-01-25T01:45:51;103623.50;;;2.97;70.20
68075;BME280;54864;52.002;5.468;2023-01-25T01:46:54;103620.56;;;2.86;70.67
68075;BME280;54864;52.002;5.468;2023-01-25T01:47:57;103617.25;;;2.92;70.12
68075;BME280;54864;52.002;5.468;2023-01-25T01:48:59;103614.84;;;2.98;69.64
68075;BME280;54864;52.002;5.468;2023-01-25T01:50:10;103619.31;;;3.02;69.52
68075;BME280;54864;52.002;5.468;2023-01-25T01:51:20;103614.09;;;3.02;69.37
68075;BME280;54864;52.002;5.468;2023-01-25T01:52:26;103613.25;;;3.03;69.39
68075;BME280;54864;52.002;5.468;2023-01-25T01:53:30;103611.63;;;3.07;69.77
68075;BME280;54864;52.002;5.468;2023-01-25T01:54:36;103619.06;;;2.95;69.57
68075;BME280;54864;52.002;5.468;2023-01-25T01:55:40;103605.81;;;2.87;69.95
68075;BME280;54864;52.002;5.468;2023-01-25T01:56:45;103610.19;;;2.88;70.03
68075;BME280;54864;52.002;5.468;2023-01-25T01:57:55;103609.38;;;2.91;69.88
68075;BME280;54864;52.002;5.468;2023-01-25T01:58:58;103601.19;;;2.78;69.69
68075;BME280;54864;52.002;5.468;2023-01-25T02:00:03;103606.13;;;2.69;71.20
68075;BME280;54864;52.002;5.468;2023-01-25T02:01:04;103607.81;;;2.69;70.75
68075;BME280;54864;52.002;5.468;2023-01-25T02:02:06;103607.00;;;2.70;70.99
68075;BME280;54864;52.002;5.468;2023-01-25T02:03:08;103604.59;;;2.76;70.74
68075;BME280;54864;52.002;5.468;2023-01-25T02:04:12;103608.13;;;2.78;70.34
68075;BME280;54864;52.002;5.468;2023-01-25T02:05:18;103606.31;;;2.75;70.28
68075;BME280;54864;52.002;5.468;2023-01-25T02:06:34;103609.50;;;2.67;70.05
68075;BME280;54864;52.002;5.468;2023-01-25T02:07:37;103600.06;;;2.70;70.49
68075;BME280;54864;52.002;5.468;2023-01-25T02:08:40;103602.75;;;2.73;70.89
68075;BME280;54864;52.002;5.468;2023-01-25T02:09:43;103608.06;;;2.76;70.21
68075;BME280;54864;52.002;5.468;2023-01-25T02:10:46;103604.69;;;2.79;70.24
68075;BME280;54864;52.002;5.468;2023-01-25T02:11:50;103596.97;;;2.82;70.23
68075;BME280;54864;52.002;5.468;2023-01-25T02:12:54;103603.16;;;2.85;69.73
68075;BME280;54864;52.002;5.468;2023-01-25T02:13:56;103600.53;;;2.85;70.35
68075;BME280;54864;52.002;5.468;2023-01-25T02:15:00;103603.28;;;2.90;69.19
68075;BME280;54864;52.002;5.468;2023-01-25T02:16:01;103588.41;;;2.86;69.49
68075;BME280;54864;52.002;5.468;2023-01-25T02:17:03;103603.38;;;2.93;69.23
68075;BME280;54864;52.002;5.468;2023-01-25T02:18:04;103606.00;;;2.93;69.47
68075;BME280;54864;52.002;5.468;2023-01-25T02:19:07;103609.47;;;2.94;69.04
68075;BME280;54864;52.002;5.468;2023-01-25T02:20:16;103606.91;;;2.95;68.99
68075;BME280;54864;52.002;5.468;2023-01-25T02:21:20;103607.81;;;2.96;69.14
68075;BME280;54864;52.002;5.468;2023-01-25T02:22:26;103600.91;;;2.98;68.67
68075;BME280;54864;52.002;5.468;2023-01-25T02:23:36;103602.50;;;2.93;68.55
68075;BME280;54864;52.002;5.468;2023-01-25T02:24:42;103602.47;;;2.91;68.40
68075;BME280;54864;52.002;5.468;2023-01-25T02:25:50;103601.53;;;2.89;68.71
68075;BME280;54864;52.002;5.468;2023-01-25T02:26:51;103591.94;;;2.88;69.08
68075;BME280;54864;52.002;5.468;2023-01-25T02:27:55;103602.53;;;2.94;68.52
68075;BME280;54864;52.002;5.468;2023-01-25T02:29:00;103593.66;;;2.88;68.51
68075;BME280;54864;52.002;5.468;2023-01-25T02:30:04;103595.56;;;2.93;68.40
68075;BME280;54864;52.002;5.468;2023-01-25T02:31:05;103596.16;;;2.84;68.30
68075;BME280;54864;52.002;5.468;2023-01-25T02:32:07;103594.53;;;2.88;68.61
68075;BME280;54864;52.002;5.468;2023-01-25T02:33:08;103590.72;;;2.77;68.94
68075;BME280;54864;52.002;5.468;2023-01-25T02:34:10;103598.53;;;2.77;69.25
68075;BME280;54864;52.002;5.468;2023-01-25T02:35:17;103596.13;;;2.83;69.26
68075;BME280;54864;52.002;5.468;2023-01-25T02:36:23;103589.47;;;2.93;68.84
68075;BME280;54864;52.002;5.468;2023-01-25T02:37:25;103598.19;;;2.93;68.56
68075;BME280;54864;52.002;5.468;2023-01-25T02:38:28;103593.81;;;2.92;68.29
68075;BME280;54864;52.002;5.468;2023-01-25T02:39:31;103592.78;;;2.87;68.50
68075;BME280;54864;52.002;5.468;2023-01-25T02:40:43;103598.25;;;2.68;68.23
68075;BME280;54864;52.002;5.468;2023-01-25T02:41:46;103593.56;;;2.58;69.18
68075;BME280;54864;52.002;5.468;2023-01-25T02:42:48;103600.47;;;2.57;69.36
68075;BME280;54864;52.002;5.468;2023-01-25T02:43:49;103591.78;;;2.57;69.05
68075;BME280;54864;52.002;5.468;2023-01-25T02:44:51;103592.66;;;2.57;69.39
68075;BME280;54864;52.002;5.468;2023-01-25T02:45:57;103590.19;;;2.60;69.45
68075;BME280;54864;52.002;5.468;2023-01-25T02:47:00;103585.28;;;2.69;69.17
68075;BME280;54864;52.002;5.468;2023-01-25T02:48:01;103590.63;;;2.74;68.85
68075;BME280;54864;52.002;5.468;2023-01-25T02:49:05;103586.31;;;2.74;69.25
68075;BME280;54864;52.002;5.468;2023-01-25T02:50:07;103583.66;;;2.73;68.63
68075;BME280;54864;52.002;5.468;2023-01-25T02:51:09;103582.75;;;2.72;68.95
68075;BME280;54864;52.002;5.468;2023-01-25T02:52:10;103585.31;;;2.71;69.16
68075;BME280;54864;52.002;5.468;2023-01-25T02:53:11;103578.38;;;2.71;69.49
68075;BME280;54864;52.002;5.468;2023-01-25T02:54:15;103580.16;;;2.72;69.35
68075;BME280;54864;52.002;5.468;2023-01-25T02:55:17;103585.38;;;2.72;69.13
68075;BME280;54864;52.002;5.468;2023-01-25T02:56:18;103580.56;;;2.59;69.05
68075;BME280;54864;52.002;5.468;2023-01-25T02:57:21;103592.41;;;2.49;69.65
68075;BME280;54864;52.002;5.468;2023-01-25T02:58:22;103589.03;;;2.52;69.63
68075;BME280;54864;52.002;5.468;2023-01-25T02:59:24;103587.00;;;2.43;70.15
68075;BME280;54864;52.002;5.468;2023-01-25T03:00:25;103583.56;;;2.44;70.34
68075;BME280;54864;52.002;5.468;2023-01-25T03:01:27;103579.63;;;2.30;70.36
68075;BME280;54864;52.002;5.468;2023-01-25T03:02:28;103586.75;;;2.36;70.41
68075;BME280;54864;52.002;5.468;2023-01-25T03:03:29;103587.69;;;2.38;70.01
68075;BME280;54864;52.002;5.468;2023-01-25T03:04:30;103581.81;;;2.43;69.66
68075;BME280;54864;52.002;5.468;2023-01-25T03:05:32;103588.97;;;2.50;69.62
68075;BME280;54864;52.002;5.468;2023-01-25T03:06:33;103589.81;;;2.49;69.52
68075;BME280;54864;52.002;5.468;2023-01-25T03:07:35;103583.47;;;2.41;69.52
68075;BME280;54864;52.002;5.468;2023-01-25T03:08:36;103584.25;;;2.39;69.58
68075;BME280;54864;52.002;5.468;2023-01-25T03:09:38;103572.03;;;2.36;70.26
68075;BME280;54864;52.002;5.468;2023-01-25T03:10:39;103575.72;;;2.43;69.89
68075;BME280;54864;52.002;5.468;2023-01-25T03:11:41;103570.34;;;2.38;70.12
68075;BME280;54864;52.002;5.468;2023-01-25T03:12:45;103573.44;;;2.27;69.97
68075;BME280;54864;52.002;5.468;2023-01-25T03:13:47;103571.88;;;2.32;69.88
68075;BME280;54864;52.002;5.468;2023-01-25T03:14:47;103568.50;;;2.34;69.83
68075;BME280;54864;52.002;5.468;2023-01-25T03:15:49;103567.78;;;2.13;70.11
68075;BME280;54864;52.002;5.468;2023-01-25T03:16:50;103567.56;;;2.32;69.59
68075;BME280;54864;52.002;5.468;2023-01-25T03:17:52;103561.16;;;2.22;69.73
68075;BME280;54864;52.002;5.468;2023-01-25T03:18:55;103568.03;;;2.20;70.08
68075;BME280;54864;52.002;5.468;2023-01-25T03:19:56;103559.44;;;2.23;70.48
68075;BME280;54864;52.002;5.468;2023-01-25T03:21:04;103562.53;;;2.38;70.62
68075;BME280;54864;52.002;5.468;2023-01-25T03:22:06;103556.91;;;2.51;70.71
68075;BME280;54864;52.002;5.468;2023-01-25T03:23:07;103550.91;;;2.54;70.36
68075;BME280;54864;52.002;5.468;2023-01-25T03:24:09;103560.59;;;2.58;70.27
68075;BME280;54864;52.002;5.468;2023-01-25T03:25:10;103544.66;;;2.49;70.10
68075;BME280;54864;52.002;5.468;2023-01-25T03:26:14;103552.53;;;2.50;69.18
68075;BME280;54864;52.002;5.468;2023-01-25T03:27:15;103546.38;;;2.48;69.42
68075;BME280;54864;52.002;5.468;2023-01-25T03:28:19;103553.25;;;2.46;69.38
68075;BME280;54864;52.002;5.468;2023-01-25T03:29:20;103548.25;;;2.52;69.19
68075;BME280;54864;52.002;5.468;2023-01-25T03:30:21;103544.88;;;2.55;69.20
68075;BME280;54864;52.002;5.468;2023-01-25T03:31:22;103545.75;;;2.55;69.24
68075;BME280;54864;52.002;5.468;2023-01-25T03:32:25;103547.59;;;2.60;69.32
68075;BME280;54864;52.002;5.468;2023-01-25T03:33:25;103543.25;;;2.59;69.39
68075;BME280;54864;52.002;5.468;2023-01-25T03:34:27;103551.94;;;2.59;69.23
68075;BME280;54864;52.002;5.468;2023-01-25T03:35:29;103549.97;;;2.52;69.33
68075;BME280;54864;52.002;5.468;2023-01-25T03:36:31;103548.34;;;2.55;69.19
68075;BME280;54864;52.002;5.468;2023-01-25T03:37:31;103543.63;;;2.44;69.38
68075;BME280;54864;52.002;5.468;2023-01-25T03:38:33;103544.88;;;2.55;69.67
68075;BME280;54864;52.002;5.468;2023-01-25T03:39:34;103543.25;;;2.59;69.81
68075;BME280;54864;52.002;5.468;2023-01-25T03:40:36;103543.31;;;2.60;69.32
68075;BME280;54864;52.002;5.468;2023-01-25T03:41:37;103537.28;;;2.61;69.72
68075;BME280;54864;52.002;5.468;2023-01-25T03:42:39;103543.75;;;2.47;69.38
68075;BME280;54864;52.002;5.468;2023-01-25T03:43:41;103534.81;;;2.39;69.92
68075;BME280;54864;52.002;5.468;2023-01-25T03:44:43;103530.66;;;2.45;70.04
68075;BME280;54864;52.002;5.468;2023-01-25T03:45:44;103537.78;;;2.51;70.08
68075;BME280;54864;52.002;5.468;2023-01-25T03:46:46;103531.69;;;2.50;69.86
68075;BME280;54864;52.002;5.468;2023-01-25T03:47:47;103535.38;;;2.57;69.91
68075;BME280;54864;52.002;5.468;2023-01-25T03:48:49;103531.28;;;2.64;69.68
68075;BME280;54864;52.002;5.468;2023-01-25T03:49:50;103533.69;;;2.59;69.31
68075;BME280;54864;52.002;5.468;2023-01-25T03:50:53;103538.34;;;2.68;69.05
68075;BME280;54864;52.002;5.468;2023-01-25T03:51:54;103537.69;;;2.75;69.42
68075;BME280;54864;52.002;5.468;2023-01-25T03:52:57;103527.19;;;2.72;69.29
68075;BME280;54864;52.002;5.468;2023-01-25T03:54:01;103533.28;;;2.72;69.31
68075;BME280;54864;52.002;5.468;2023-01-25T03:55:04;103528.94;;;2.73;68.99
68075;BME280;54864;52.002;5.468;2023-01-25T03:56:07;103535.09;;;2.75;69.54
68075;BME280;54864;52.002;5.468;2023-01-25T03:57:09;103534.31;;;2.77;69.08
68075;BME280;54864;52.002;5.468;2023-01-25T03:58:10;103531.03;;;2.84;68.94
68075;BME280;54864;52.002;5.468;2023-01-25T03:59:13;103520.63;;;2.84;68.71
68075;BME280;54864;52.002;5.468;2023-01-25T04:00:15;103530.19;;;2.85;68.96
68075;BME280;54864;52.002;5.468;2023-01-25T04:01:17;103532.66;;;2.81;69.41
68075;BME280;54864;52.002;5.468;2023-01-25T04:02:17;103530.06;;;2.81;68.45
68075;BME280;54864;52.002;5.468;2023-01-25T04:03:19;103534.53;;;2.85;68.99
68075;BME280;54864;52.002;5.468;2023-01-25T04:04:21;103531.03;;;2.84;68.38
68075;BME280;54864;52.002;5.468;2023-01-25T04:05:22;103530.16;;;2.84;68.57
68075;BME280;54864;52.002;5.468;2023-01-25T04:06:23;103528.25;;;2.78;68.57
68075;BME280;54864;52.002;5.468;2023-01-25T04:07:25;103524.13;;;2.58;68.64
68075;BME280;54864;52.002;5.468;2023-01-25T04:08:26;103521.28;;;2.50;69.18
68075;BME280;54864;52.002;5.468;2023-01-25T04:09:27;103520.44;;;2.51;69.04
68075;BME280;54864;52.002;5.468;2023-01-25T04:10:28;103522.16;;;2.51;69.48
68075;BME280;54864;52.002;5.468;2023-01-25T04:11:30;103526.50;;;2.50;69.13
68075;BME280;54864;52.002;5.468;2023-01-25T04:12:31;103524.72;;;2.49;69.27
68075;BME280;54864;52.002;5.468;2023-01-25T04:13:33;103508.97;;;2.45;69.24
68075;BME280;54864;52.002;5.468;2023-01-25T04:14:37;103517.94;;;2.54;69.45
68075;BME280;54864;52.002;5.468;2023-01-25T04:15:39;103522.25;;;2.54;69.67
68075;BME280;54864;52.002;5.468;2023-01-25T04:16:39;103515.47;;;2.59;69.19
68075;BME280;54864;52.002;5.468;2023-01-25T04:17:41;103515.19;;;2.50;69.28
68075;BME280;54864;52.002;5.468;2023-01-25T04:18:42;103518.69;;;2.50;68.95
68075;BME280;54864;52.002;5.468;2023-01-25T04:19:44;103521.53;;;2.58;68.80
68075;BME280;54864;52.002;5.468;2023-01-25T04:20:45;103515.69;;;2.65;68.71
68075;BME280;54864;52.002;5.468;2023-01-25T04:21:47;103516.72;;;2.70;68.05
68075;BME280;54864;52.002;5.468;2023-01-25T04:22:48;103516.69;;;2.69;67.90
68075;BME280;54864;52.002;5.468;2023-01-25T04:23:49;103514.91;;;2.68;67.81
68075;BME280;54864;52.002;5.468;2023-01-25T04:24:50;103517.56;;;2.69;67.75
68075;BME280;54864;52.002;5.468;2023-01-25T04:25:52;103521.03;;;2.70;68.24
68075;BME280;54864;52.002;5.468;2023-01-25T04:26:53;103523.00;;;2.77;67.15
68075;BME280;54864;52.002;5.468;2023-01-25T04:27:55;103516.69;;;2.69;67.85
68075;BME280;54864;52.002;5.468;2023-01-25T04:28:55;103509.75;;;2.69;67.61
68075;BME280;54864;52.002;5.468;2023-01-25T04:29:58;103521.09;;;2.71;67.92
68075;BME280;54864;52.002;5.468;2023-01-25T04:31:00;103517.69;;;2.74;68.52
68075;BME280;54864;52.002;5.468;2023-01-25T04:32:03;103520.94;;;2.67;68.87
68075;BME280;54864;52.002;5.468;2023-01-25T04:33:04;103514.03;;;2.67;69.21
68075;BME280;54864;52.002;5.468;2023-01-25T04:34:06;103519.78;;;2.59;68.94
68075;BME280;54864;52.002;5.468;2023-01-25T04:35:07;103514.03;;;2.67;69.07
68075;BME280;54864;52.002;5.468;2023-01-25T04:36:09;103507.97;;;2.68;69.17
68075;BME280;54864;52.002;5.468;2023-01-25T04:37:10;103500.69;;;2.58;69.15
68075;BME280;54864;52.002;5.468;2023-01-25T04:38:12;103508.34;;;2.53;69.21
68075;BME280;54864;52.002;5.468;2023-01-25T04:39:13;103502.47;;;2.59;69.09
68075;BME280;54864;52.002;5.468;2023-01-25T04:40:14;103501.75;;;2.63;68.98
68075;BME280;54864;52.002;5.468;2023-01-25T04:41:16;103507.22;;;2.72;69.08
68075;BME280;54864;52.002;5.468;2023-01-25T04:42:17;103502.03;;;2.72;68.82
68075;BME280;54864;52.002;5.468;2023-01-25T04:43:21;103509.69;;;2.68;68.19
68075;BME280;54864;52.002;5.468;2023-01-25T04:44:21;103506.13;;;2.64;68.90
68075;BME280;54864;52.002;5.468;2023-01-25T04:45:24;103498.91;;;2.57;68.83
68075;BME280;54864;52.002;5.468;2023-01-25T04:46:25;103503.19;;;2.55;68.82
68075;BME280;54864;52.002;5.468;2023-01-25T04:47:27;103501.66;;;2.60;69.04
68075;BME280;54864;52.002;5.468;2023-01-25T04:48:28;103500.97;;;2.66;68.55
68075;BME280;54864;52.002;5.468;2023-01-25T04:49:30;103493.16;;;2.66;68.45
68075;BME280;54864;52.002;5.468;2023-01-25T04:50:30;103496.69;;;2.68;68.43
68075;BME280;54864;52.002;5.468;2023-01-25T04:51:32;103493.22;;;2.69;68.21
68075;BME280;54864;52.002;5.468;2023-01-25T04:52:33;103493.16;;;2.66;68.56
68075;BME280;54864;52.002;5.468;2023-01-25T04:53:35;103491.38;;;2.65;69.23
68075;BME280;54864;52.002;5.468;2023-01-25T04:54:36;103484.94;;;2.53;69.00
68075;BME280;54864;52.002;5.468;2023-01-25T04:55:38;103479.75;;;2.55;69.41
68075;BME280;54864;52.002;5.468;2023-01-25T04:56:39;103486.78;;;2.58;69.24
68075;BME280;54864;52.002;5.468;2023-01-25T04:57:41;103485.06;;;2.58;68.97
68075;BME280;54864;52.002;5.468;2023-01-25T04:58:42;103483.41;;;2.60;68.97
68075;BME280;54864;52.002;5.468;2023-01-25T04:59:43;103484.31;;;2.61;69.08
68075;BME280;54864;52.002;5.468;2023-01-25T05:00:45;103493.00;;;2.61;68.71
68075;BME280;54864;52.002;5.468;2023-01-25T05:01:47;103487.63;;;2.57;68.74
68075;BME280;54864;52.002;5.468;2023-01-25T05:02:48;103490.50;;;2.37;69.39
68075;BME280;54864;52.002;5.468;2023-01-25T05:03:50;103481.06;;;2.41;69.62
68075;BME280;54864;52.002;5.468;2023-01-25T05:04:50;103485.63;;;2.48;69.53
68075;BME280;54864;52.002;5.468;2023-01-25T05:05:52;103483.16;;;2.52;69.36
68075;BME280;54864;52.002;5.468;2023-01-25T05:06:53;103489.91;;;2.46;69.31
68075;BME280;54864;52.002;5.468;2023-01-25T05:07:55;103489.84;;;2.44;69.91
68075;BME280;54864;52.002;5.468;2023-01-25T05:08:56;103487.28;;;2.46;70.01
68075;BME280;54864;52.002;5.468;2023-01-25T05:09:57;103482.13;;;2.47;69.86
68075;BME280;54864;52.002;5.468;2023-01-25T05:10:58;103485.53;;;2.45;70.35
68075;BME280;54864;52.002;5.468;2023-01-25T05:12:00;103491.44;;;2.39;70.94
68075;BME280;54864;52.002;5.468;2023-01-25T05:13:01;103488.69;;;2.35;70.46
68075;BME280;54864;52.002;5.468;2023-01-25T05:14:02;103477.06;;;2.23;70.92
68075;BME280;54864;52.002;5.468;2023-01-25T05:15:04;103478.19;;;2.32;70.11
68075;BME280;54864;52.002;5.468;2023-01-25T05:16:08;103482.03;;;2.44;69.99
68075;BME280;54864;52.002;5.468;2023-01-25T05:17:09;103485.63;;;2.48;69.83
68075;BME280;54864;52.002;5.468;2023-01-25T05:18:11;103476.09;;;2.48;69.85
68075;BME280;54864;52.002;5.468;2023-01-25T05:19:12;103480.56;;;2.52;70.15
68075;BME280;54864;52.002;5.468;2023-01-25T05:20:14;103482.41;;;2.57;69.69
68075;BME280;54864;52.002;5.468;2023-01-25T05:21:14;103477.22;;;2.57;69.45
68075;BME280;54864;52.002;5.468;2023-01-25T05:22:30;103484.09;;;2.54;69.19
68075;BME280;54864;52.002;5.468;2023-01-25T05:23:32;103482.38;;;2.55;69.64
68075;BME280;54864;52.002;5.468;2023-01-25T05:24:33;103483.25;;;2.55;69.18
68075;BME280;54864;52.002;5.468;2023-01-25T05:25:36;103479.66;;;2.52;69.72
68075;BME280;54864;52.002;5.468;2023-01-25T05:26:55;103473.66;;;2.54;70.20
68075;BME280;54864;52.002;5.468;2023-01-25T05:28:14;103473.59;;;2.51;70.22
68075;BME280;54864;52.002;5.468;2023-01-25T05:29:15;103472.91;;;2.30;70.29
68075;BME280;54864;52.002;5.468;2023-01-25T05:30:16;103469.06;;;2.46;69.99
68075;BME280;54864;52.002;5.468;2023-01-25T05:31:19;103467.81;;;2.33;70.32
68075;BME280;54864;52.002;5.468;2023-01-25T05:32:22;103466.22;;;2.38;70.52